Time;durP1;ratioP1;P1;durP2;ratioP2;P2;SDS_P1;SDS_P2;PMS_P1;PMS_P2;Temp;Humidity;BMP_temperature;BMP_pressure;BME280_temperature;BME280_humidity;BME280_pressure;Samples;Min_cycle;Max_cycle;Signal;HPM_P1;HPM_P2
2022/06/26 00:01:48;;;;;;;8.70;5.37;;;;;;;23.12;99.76;99321.28;5013645;28;20190;-80
2022/06/26 00:04:15;;;;;;;5.87;5.30;;;;;;;23.19;100.00;99324.50;5013273;28;20254;-79
2022/06/26 00:06:42;;;;;;;7.47;5.33;;;;;;;23.29;98.86;99329.88;5013283;28;20206;-79
2022/06/26 00:09:08;;;;;;;6.53;5.50;;;;;;;23.51;97.56;99332.13;5013517;28;20191;-83
2022/06/26 00:11:36;;;;;;;10.90;5.37;;;;;;;23.66;96.49;99329.31;5013846;28;20282;-81
2022/06/26 00:14:03;;;;;;;8.47;5.43;;;;;;;23.65;96.06;99344.75;5012759;28;20716;-81
2022/06/26 00:16:30;;;;;;;8.40;4.93;;;;;;;23.62;95.18;99339.09;5013464;28;20205;-79
2022/06/26 00:18:57;;;;;;;6.13;5.63;;;;;;;23.61;95.55;99349.13;5012853;28;20231;-78
2022/06/26 00:21:24;;;;;;;7.43;5.33;;;;;;;23.68;94.79;99357.75;5013631;28;20207;-78
2022/06/26 00:23:51;;;;;;;13.03;6.03;;;;;;;23.75;95.31;99360.97;5013224;28;20237;-79
2022/06/26 00:26:18;;;;;;;8.17;5.60;;;;;;;23.77;94.44;99363.41;5012831;28;20197;-80
2022/06/26 00:28:46;;;;;;;7.83;5.10;;;;;;;23.87;94.67;99361.41;5013261;28;20663;-79
2022/06/26 00:31:13;;;;;;;7.47;5.60;;;;;;;23.96;93.69;99362.44;5013191;28;20205;-79
2022/06/26 00:33:39;;;;;;;5.87;5.23;;;;;;;24.09;91.25;99367.19;5003156;28;20258;-78
2022/06/26 00:36:06;;;;;;;8.03;5.13;;;;;;;24.07;91.66;99369.38;4993468;28;20202;-79
2022/06/26 00:38:33;;;;;;;5.50;4.77;;;;;;;24.16;92.52;99370.38;4993692;28;20571;-79
2022/06/26 00:41:00;;;;;;;7.03;4.33;;;;;;;24.21;91.11;99364.88;4993666;28;20199;-80
2022/06/26 00:43:28;;;;;;;7.23;4.60;;;;;;;24.29;90.59;99366.16;4993823;28;20202;-79
2022/06/26 00:45:56;;;;;;;4.70;4.30;;;;;;;24.34;89.81;99366.91;4993129;28;20232;-79
2022/06/26 00:48:23;;;;;;;4.30;4.00;;;;;;;24.36;89.51;99367.44;4993031;28;20287;-78
2022/06/26 00:50:51;;;;;;;6.83;4.40;;;;;;;24.27;89.26;99360.22;4993304;28;20212;-80
2022/06/26 00:53:18;;;;;;;5.03;4.10;;;;;;;24.36;89.83;99356.59;4992893;28;20703;-78
2022/06/26 00:55:45;;;;;;;5.07;4.70;;;;;;;24.39;90.82;99355.19;4993440;28;20251;-78
2022/06/26 00:58:12;;;;;;;5.53;4.30;;;;;;;24.57;89.14;99363.41;4992726;28;20734;-78
2022/06/26 01:00:39;;;;;;;6.23;4.67;;;;;;;24.55;88.37;99362.88;4993111;28;20202;-77
2022/06/26 01:03:07;;;;;;;5.63;5.03;;;;;;;24.69;88.51;99371.97;4993049;28;20202;-77
2022/06/26 01:05:34;;;;;;;7.87;5.33;;;;;;;24.73;87.64;99366.75;4992990;28;20571;-77
2022/06/26 01:08:01;;;;;;;6.30;4.53;;;;;;;24.70;87.82;99368.16;4993045;28;20664;-77
2022/06/26 01:10:28;;;;;;;6.70;5.03;;;;;;;24.60;86.86;99367.44;4993203;28;20202;-79
2022/06/26 01:12:55;;;;;;;6.03;4.63;;;;;;;24.53;88.52;99373.22;4993498;28;20264;-78
2022/06/26 01:15:22;;;;;;;5.10;4.57;;;;;;;24.57;88.24;99371.56;4993569;28;20297;-77
2022/06/26 01:17:49;;;;;;;7.00;4.90;;;;;;;24.61;88.48;99369.91;4992551;28;20221;-78
2022/06/26 01:20:18;;;;;;;7.97;5.03;;;;;;;24.70;88.31;99367.34;4992879;28;20256;-78
2022/06/26 01:22:57;;;;;;;6.80;5.07;;;;;;;24.79;87.16;99363.69;4993464;28;20193;-78
2022/06/26 01:25:24;;;;;;;8.93;4.50;;;;;;;24.84;87.99;99369.06;4993001;28;20189;-78
2022/06/26 01:27:51;;;;;;;5.00;4.03;;;;;;;24.95;87.39;99378.69;4992494;28;20209;-78
2022/06/26 01:30:17;;;;;;;5.47;4.03;;;;;;;25.13;85.96;99387.97;4992806;28;20202;-77
2022/06/26 01:32:44;;;;;;;6.53;4.23;;;;;;;25.30;84.73;99390.22;4992894;28;20253;-79
2022/06/26 01:35:11;;;;;;;5.33;3.90;;;;;;;25.38;84.18;99384.09;4992666;28;20560;-78
2022/06/26 01:37:37;;;;;;;5.57;3.83;;;;;;;25.42;84.22;99391.38;4995229;28;20350;-78
2022/06/26 01:40:07;;;;;;;5.90;4.00;;;;;;;25.54;82.99;99396.38;4997084;28;20198;-78
2022/06/26 01:42:34;;;;;;;10.20;4.70;;;;;;;25.64;82.01;99399.75;4996934;28;20194;-78
2022/06/26 01:45:00;;;;;;;4.90;4.43;;;;;;;25.69;81.85;99404.31;4996918;28;20206;-78
2022/06/26 01:47:27;;;;;;;4.13;3.70;;;;;;;25.71;81.60;99404.81;4996502;28;20195;-78
2022/06/26 01:49:54;;;;;;;4.70;4.27;;;;;;;25.71;81.47;99412.97;4997611;28;20257;-77
2022/06/26 01:52:21;;;;;;;5.50;3.87;;;;;;;25.72;81.07;99414.63;4996381;28;20199;-76
2022/06/26 01:54:48;;;;;;;6.63;3.57;;;;;;;25.82;81.32;99412.53;4996160;28;20756;-76
2022/06/26 01:57:16;;;;;;;4.10;3.70;;;;;;;25.88;79.67;99413.25;4996320;28;20260;-76
2022/06/26 01:59:42;;;;;;;7.13;4.00;;;;;;;25.83;80.43;99408.69;4996376;28;20198;-75
2022/06/26 02:02:09;;;;;;;4.93;3.93;;;;;;;25.84;79.73;99409.53;4996293;28;20203;-75
2022/06/26 02:04:36;;;;;;;4.17;3.63;;;;;;;25.85;80.34;99411.13;4996003;28;20623;-77
2022/06/26 02:07:03;;;;;;;7.70;4.00;;;;;;;25.89;80.56;99412.16;4996076;28;20198;-75
2022/06/26 02:15:06;;;;;;;4.50;4.10;;;;;;;25.97;80.25;99422.41;4996250;28;20293;-80
2022/06/26 02:17:33;;;;;;;11.27;4.57;;;;;;;25.96;80.60;99418.06;4996204;28;20225;-80
2022/06/26 02:20:00;;;;;;;7.27;3.73;;;;;;;25.97;80.50;99416.94;4995982;28;20198;-80
2022/06/26 02:22:26;;;;;;;4.57;4.10;;;;;;;26.01;80.48;99420.69;4996014;28;20195;-80
2022/06/26 02:24:53;;;;;;;6.37;4.10;;;;;;;26.01;80.19;99424.19;4996315;28;20620;-79
2022/06/26 02:27:21;;;;;;;6.43;4.83;;;;;;;26.03;80.88;99418.47;4995974;28;20257;-79
2022/06/26 02:29:48;;;;;;;6.93;4.00;;;;;;;26.03;80.33;99423.91;4995659;28;20253;-79
2022/06/26 02:32:15;;;;;;;8.23;4.57;;;;;;;26.05;80.52;99427.16;4995885;28;20333;-80
2022/06/26 02:34:41;;;;;;;10.37;4.80;;;;;;;26.08;79.89;99429.25;4995945;28;20203;-78
2022/06/26 02:37:08;;;;;;;4.57;3.57;;;;;;;26.03;80.01;99419.28;4995249;28;20659;-78
2022/06/26 02:39:35;;;;;;;6.40;4.00;;;;;;;26.11;79.79;99431.41;4995234;28;20278;-78
2022/06/26 02:42:01;;;;;;;5.17;4.20;;;;;;;26.12;79.53;99431.09;4995586;28;20195;-78
2022/06/26 02:44:30;;;;;;;8.80;4.37;;;;;;;26.12;79.56;99427.56;4995684;28;20198;-76
2022/06/26 02:46:57;;;;;;;6.47;4.70;;;;;;;26.17;79.76;99430.22;4995229;28;20229;-75
2022/06/26 02:49:23;;;;;;;8.30;4.27;;;;;;;26.12;79.81;99427.56;4995636;28;20202;-75
2022/06/26 02:51:50;;;;;;;4.70;4.27;;;;;;;26.18;79.89;99431.84;4995849;28;20553;-77
2022/06/26 02:54:17;;;;;;;5.37;4.23;;;;;;;26.20;79.50;99435.03;4995382;28;20206;-77
2022/06/26 02:56:44;;;;;;;5.67;4.30;;;;;;;26.14;79.89;99420.75;4995770;28;20250;-77
2022/06/26 02:59:10;;;;;;;8.13;4.67;;;;;;;26.14;80.23;99409.84;4995220;28;20288;-77
2022/06/26 03:01:38;;;;;;;4.67;4.23;;;;;;;25.98;80.75;99405.78;4995561;28;20632;-77
2022/06/26 03:04:05;;;;;;;5.07;4.57;;;;;;;25.80;81.73;99408.50;4994950;28;20253;-77
2022/06/26 03:06:32;;;;;;;4.93;4.47;;;;;;;25.71;82.30;99402.09;4994889;28;20745;-78
2022/06/26 03:08:59;;;;;;;5.63;5.00;;;;;;;25.10;84.69;99399.44;4994839;28;20202;-80
2022/06/26 03:11:26;;;;;;;7.20;4.77;;;;;;;24.35;89.06;99400.31;4995376;28;20264;-80
2022/06/26 03:13:53;;;;;;;5.53;5.10;;;;;;;24.03;90.89;99395.47;4994934;28;20239;-80
2022/06/26 03:16:20;;;;;;;6.07;5.20;;;;;;;23.68;94.24;99393.03;4994946;28;20201;-80
2022/06/26 03:18:48;;;;;;;12.50;6.07;;;;;;;22.98;98.34;99398.88;4994756;28;20224;-81
2022/06/26 03:21:14;;;;;;;8.43;5.93;;;;;;;23.29;98.38;99394.13;4994660;28;20204;-80
2022/06/26 03:26:25;;;;;;;8.50;6.10;;;;;;;23.02;97.42;99389.09;4995125;28;20560;-81
2022/06/26 03:28:52;;;;;;;5.43;5.03;;;;;;;22.75;99.71;99399.50;4994818;28;20675;-80
2022/06/26 03:31:19;;;;;;;5.70;5.10;;;;;;;22.79;100.00;99397.88;4994673;28;20203;-80
2022/06/26 03:33:46;;;;;;;11.50;5.70;;;;;;;22.64;100.00;99397.94;4994351;28;20735;-81
2022/06/26 03:36:14;;;;;;;10.97;5.50;;;;;;;22.38;100.00;99398.25;4994698;28;20262;-79
2022/06/26 03:38:41;;;;;;;7.10;5.80;;;;;;;22.20;100.00;99402.34;4995022;28;20227;-80
2022/06/26 03:41:08;;;;;;;10.80;5.33;;;;;;;22.17;100.00;99394.78;4994751;28;20617;-80
2022/06/26 03:43:34;;;;;;;9.87;5.53;;;;;;;22.35;100.00;99399.63;4994040;28;20195;-80
2022/06/26 03:46:01;;;;;;;12.37;5.83;;;;;;;22.56;100.00;99406.63;4995279;28;20198;-80
2022/06/26 03:48:28;;;;;;;11.63;5.13;;;;;;;22.65;100.00;99399.56;4994305;28;20206;-78
2022/06/26 03:50:55;;;;;;;8.03;5.00;;;;;;;22.88;100.00;99393.50;4993887;28;20661;-79
2022/06/26 03:53:23;;;;;;;7.93;5.43;;;;;;;23.05;98.67;99393.97;4993994;28;20198;-79
2022/06/26 03:55:50;;;;;;;7.50;5.00;;;;;;;23.24;98.10;99400.38;4994867;28;20625;-78
2022/06/26 03:58:16;;;;;;;9.77;5.23;;;;;;;23.32;96.91;99399.00;4994033;28;20294;-78
2022/06/26 04:00:43;;;;;;;10.80;6.17;;;;;;;23.36;95.50;99400.84;4993812;28;20283;-79
2022/06/26 04:03:10;;;;;;;6.30;4.70;;;;;;;23.56;96.33;99408.84;4994021;28;20266;-79
2022/06/26 04:05:38;;;;;;;7.50;5.10;;;;;;;23.69;95.33;99404.69;4994876;28;20259;-80
2022/06/26 04:08:06;;;;;;;6.63;4.80;;;;;;;23.96;93.59;99422.13;4993669;28;20286;-77
2022/06/26 04:10:35;;;;;;;4.47;4.17;;;;;;;24.05;90.76;99420.41;4993655;28;20202;-77
2022/06/26 04:13:03;;;;;;;6.80;4.53;;;;;;;24.09;90.49;99426.91;4994035;28;20558;-78
2022/06/26 04:15:31;;;;;;;6.80;4.30;;;;;;;24.30;88.82;99428.31;4993603;28;20206;-78
2022/06/26 04:17:59;;;;;;;5.83;4.40;;;;;;;24.46;87.75;99421.66;4993435;28;20256;-78
2022/06/26 04:20:26;;;;;;;7.07;4.13;;;;;;;24.56;87.22;99426.97;4993723;28;20202;-78
2022/06/26 04:22:57;;;;;;;7.63;4.27;;;;;;;24.80;86.00;99427.00;4993685;28;20203;-78
2022/06/26 04:25:24;;;;;;;6.97;4.70;;;;;;;24.96;84.66;99418.38;4993274;28;20237;-78
2022/06/26 04:27:53;;;;;;;5.17;4.60;;;;;;;25.07;84.90;99416.31;4993608;28;20198;-79
2022/06/26 04:30:20;;;;;;;7.07;5.03;;;;;;;25.17;84.07;99421.63;4993601;28;20253;-78
2022/06/26 04:32:46;;;;;;;8.10;4.50;;;;;;;25.11;84.93;99424.72;4993991;28;20245;-78
2022/06/26 04:35:14;;;;;;;7.03;4.37;;;;;;;25.19;84.34;99427.56;4993452;28;20257;-78
2022/06/26 04:37:41;;;;;;;7.37;5.07;;;;;;;25.24;84.56;99424.00;4993050;28;20257;-78
2022/06/26 04:40:11;;;;;;;8.67;5.07;;;;;;;25.27;83.87;99415.25;4993332;28;20226;-77
2022/06/26 04:42:38;;;;;;;5.93;4.47;;;;;;;25.29;83.99;99413.06;4993810;28;20245;-78
2022/06/26 04:45:08;;;;;;;4.73;4.40;;;;;;;25.30;84.28;99401.91;4994025;28;20533;-79
2022/06/26 04:47:35;;;;;;;9.43;5.70;;;;;;;25.35;83.59;99411.91;4993080;28;20202;-78
2022/06/26 04:50:02;;;;;;;5.63;4.63;;;;;;;25.38;83.16;99412.13;4993119;28;20626;-77
2022/06/26 04:52:28;;;;;;;6.70;4.63;;;;;;;25.45;83.14;99422.63;4993173;28;20198;-77
2022/06/26 04:54:55;;;;;;;6.07;4.47;;;;;;;25.47;83.34;99437.56;4992597;28;20202;-76
2022/06/26 04:57:22;;;;;;;5.60;4.03;;;;;;;25.57;82.50;99436.59;4993031;28;20249;-79
2022/06/26 04:59:49;;;;;;;9.17;5.57;;;;;;;25.60;81.99;99431.38;4992949;28;20222;-78
2022/06/26 05:02:18;;;;;;;5.37;4.87;;;;;;;25.67;81.90;99437.25;4995801;28;20210;-78
2022/06/26 05:04:44;;;;;;;8.37;4.50;;;;;;;25.83;81.39;99443.25;4995297;28;20261;-77
2022/06/26 05:07:11;;;;;;;26.47;5.20;;;;;;;26.05;80.67;99446.22;5003348;28;20741;-77
2022/06/26 05:09:38;;;;;;;19.40;5.47;;;;;;;26.06;80.83;99442.38;5000653;28;20199;-77
2022/06/26 05:12:06;;;;;;;9.07;5.23;;;;;;;26.13;81.05;99445.53;5001834;28;20800;-77
2022/06/26 05:14:33;;;;;;;8.13;5.23;;;;;;;26.16;80.49;99442.19;5002697;28;20222;-78
2022/06/26 05:16:59;;;;;;;11.17;5.60;;;;;;;26.21;80.21;99433.97;5003587;28;20190;-78
2022/06/26 05:19:28;;;;;;;8.53;6.17;;;;;;;26.38;79.00;99445.88;5001542;28;20222;-77
2022/06/26 05:21:54;;;;;;;9.00;6.47;;;;;;;26.36;79.77;99444.56;5003087;28;20256;-77
2022/06/26 05:24:21;;;;;;;9.07;6.10;;;;;;;26.51;78.22;99453.28;5001499;28;20556;-77
2022/06/26 05:26:48;;;;;;;5.70;5.07;;;;;;;26.61;77.79;99450.41;5001337;28;20662;-80
2022/06/26 05:29:14;;;;;;;6.00;5.50;;;;;;;26.64;77.52;99451.72;5003020;28;20193;-79
2022/06/26 05:31:41;;;;;;;11.43;6.20;;;;;;;26.65;77.58;99450.59;5004635;28;20201;-78
2022/06/26 05:34:08;;;;;;;11.17;6.20;;;;;;;26.66;77.86;99457.69;5012466;28;20244;-80
2022/06/26 05:36:36;;;;;;;8.50;7.93;;;;;;;26.70;77.45;99455.97;5012050;28;20674;-77
2022/06/26 05:39:03;;;;;;;10.27;8.40;;;;;;;26.63;78.00;99463.72;5011853;28;20279;-78
2022/06/26 05:41:30;;;;;;;12.97;7.43;;;;;;;26.70;78.39;99461.41;5013048;28;20201;-76
2022/06/26 05:43:57;;;;;;;14.23;7.87;;;;;;;26.71;78.32;99463.03;5012210;28;20251;-77
2022/06/26 05:46:24;;;;;;;8.67;7.47;;;;;;;26.77;78.00;99478.97;5012303;28;20190;-77
2022/06/26 05:48:50;;;;;;;10.43;8.47;;;;;;;26.70;77.11;99478.56;5012842;28;20256;-78
2022/06/26 05:51:17;;;;;;;8.90;7.97;;;;;;;26.44;79.76;99473.84;5012470;28;20194;-77
2022/06/26 05:53:45;;;;;;;9.73;7.07;;;;;;;26.40;80.81;99479.09;5012472;28;20198;-75
2022/06/26 05:56:12;;;;;;;12.83;7.07;;;;;;;26.50;79.46;99484.34;5012073;28;20248;-78
2022/06/26 05:58:39;;;;;;;8.50;7.80;;;;;;;26.60;79.60;99477.94;5012123;28;20201;-76
2022/06/26 06:01:06;;;;;;;14.13;7.50;;;;;;;26.79;77.97;99492.31;5012278;28;20198;-76
2022/06/26 06:03:33;;;;;;;9.70;8.37;;;;;;;26.89;79.00;99492.94;4999672;28;20655;-76
2022/06/26 06:05:59;;;;;;;6.60;6.10;;;;;;;26.98;76.66;99495.75;5008998;28;20194;-68
2022/06/26 06:08:26;;;;;;;7.20;6.13;;;;;;;27.25;75.34;99499.31;4991895;28;20206;-67
2022/06/26 06:10:54;;;;;;;10.27;7.00;;;;;;;27.51;74.62;99502.31;4997535;28;20225;-67
2022/06/26 06:13:21;;;;;;;9.03;5.70;;;;;;;27.78;72.74;99507.72;5011396;28;20686;-67
2022/06/26 06:15:48;;;;;;;5.40;5.00;;;;;;;27.99;72.02;99511.59;5011468;28;20237;-70
2022/06/26 06:18:14;;;;;;;8.10;6.37;;;;;;;28.11;72.23;99504.50;5011472;28;20245;-69
2022/06/26 06:20:42;;;;;;;7.20;6.13;;;;;;;27.99;71.78;99511.59;4995521;28;20218;-70
2022/06/26 06:23:09;;;;;;;10.50;5.80;;;;;;;27.90;73.62;99508.81;4993594;28;20203;-74
2022/06/26 06:25:36;;;;;;;8.73;6.43;;;;;;;27.90;73.20;99513.47;4995482;28;20658;-71
2022/06/26 06:28:05;;;;;;;11.57;6.10;;;;;;;27.62;73.34;99517.34;4995478;28;20198;-71
2022/06/26 06:30:31;;;;;;;7.20;5.93;;;;;;;27.64;73.43;99509.69;4993747;28;20206;-73
2022/06/26 06:32:58;;;;;;;7.07;6.30;;;;;;;27.53;73.10;99508.28;4993507;28;20199;-73
2022/06/26 06:35:25;;;;;;;9.63;5.50;;;;;;;27.33;74.14;99497.78;4995194;28;20675;-72
2022/06/26 06:37:51;;;;;;;8.27;6.07;;;;;;;27.35;75.34;99495.56;5012191;28;20191;-72
2022/06/26 06:40:18;;;;;;;6.53;5.07;;;;;;;27.48;75.40;99495.53;5014757;28;20221;-72
2022/06/26 06:42:45;;;;;;;14.50;5.30;;;;;;;27.54;74.76;99493.50;5015710;28;20503;-72
2022/06/26 06:45:13;;;;;;;11.03;5.77;;;;;;;27.25;77.53;99488.41;5014324;28;20196;-72
2022/06/26 06:47:40;;;;;;;7.37;5.47;;;;;;;27.04;78.37;99486.38;5014672;28;20201;-72
2022/06/26 06:50:07;;;;;;;6.83;4.77;;;;;;;27.10;77.05;99485.97;5014604;28;20256;-72
2022/06/26 06:52:34;;;;;;;9.77;5.47;;;;;;;27.08;76.90;99501.00;5014639;28;20194;-72
2022/06/26 06:55:01;;;;;;;5.03;4.53;;;;;;;26.45;78.03;99487.19;5014097;28;20194;-72
2022/06/26 06:57:28;;;;;;;8.20;4.83;;;;;;;26.72;77.41;99492.72;5014305;28;20654;-72
2022/06/26 06:59:55;;;;;;;6.87;5.10;;;;;;;26.73;78.40;99493.50;5014643;28;20317;-72
2022/06/26 07:02:23;;;;;;;11.93;4.87;;;;;;;26.56;78.38;99493.25;5014760;28;20280;-71
2022/06/26 07:04:50;;;;;;;6.03;4.90;;;;;;;26.61;77.59;99501.34;5014236;28;20273;-73
2022/06/26 07:07:17;;;;;;;5.87;5.10;;;;;;;26.19;77.42;99498.78;5013971;28;20248;-72
2022/06/26 07:09:43;;;;;;;6.17;5.47;;;;;;;25.84;79.13;99481.06;5014798;28;20209;-73
2022/06/26 07:12:11;;;;;;;5.87;5.07;;;;;;;25.85;80.26;99496.28;4995915;28;20623;-73
2022/06/26 07:14:38;;;;;;;5.20;4.70;;;;;;;25.89;81.03;99496.53;4994804;28;20321;-72
2022/06/26 07:17:05;;;;;;;5.33;4.70;;;;;;;25.90;79.41;99489.97;4994543;28;20282;-75
2022/06/26 07:19:33;;;;;;;5.93;4.07;;;;;;;25.72;77.09;99497.03;4994349;28;20227;-72
2022/06/26 07:22:00;;;;;;;4.80;4.40;;;;;;;25.69;77.78;99494.13;4994647;28;20190;-73
2022/06/26 07:24:27;;;;;;;4.67;3.93;;;;;;;25.81;78.12;99491.75;4994365;28;20203;-73
2022/06/26 07:26:54;;;;;;;4.70;4.30;;;;;;;25.99;77.28;99488.22;4994234;28;20202;-73
2022/06/26 07:29:21;;;;;;;6.97;4.93;;;;;;;26.21;77.45;99491.16;4994132;28;20671;-72
2022/06/26 07:31:47;;;;;;;5.00;3.90;;;;;;;26.70;77.22;99494.13;4994295;28;20198;-73
2022/06/26 07:34:16;;;;;;;10.57;4.30;;;;;;;27.28;74.82;99489.72;4993495;28;20245;-72
2022/06/26 07:36:45;;;;;;;5.17;3.70;;;;;;;27.92;71.22;99508.50;4993995;28;20281;-73
2022/06/26 07:39:13;;;;;;;4.20;3.80;;;;;;;28.47;67.82;99513.44;4994352;28;20289;-73
2022/06/26 07:41:41;;;;;;;3.77;3.20;;;;;;;28.55;66.43;99509.16;4994561;28;20194;-73
2022/06/26 07:44:07;;;;;;;5.20;3.93;;;;;;;28.75;66.78;99505.88;4993803;28;20265;-73
2022/06/26 07:46:36;;;;;;;6.70;3.60;;;;;;;29.01;65.06;99509.56;4993925;28;20199;-71
2022/06/26 07:49:04;;;;;;;4.50;3.17;;;;;;;29.11;64.38;99506.53;4993870;28;20190;-73
2022/06/26 07:51:31;;;;;;;4.30;2.93;;;;;;;29.55;63.28;99503.59;4993791;28;20663;-73
2022/06/26 07:53:59;;;;;;;5.30;3.40;;;;;;;29.64;62.75;99501.69;4994247;28;20195;-72
2022/06/26 07:56:27;;;;;;;4.67;3.27;;;;;;;30.01;62.08;99509.28;4993663;28;20195;-72
2022/06/26 07:58:54;;;;;;;5.30;3.13;;;;;;;29.74;60.15;99504.13;4993352;28;20194;-78
2022/06/26 08:01:21;;;;;;;5.50;3.13;;;;;;;30.16;59.20;99505.28;4993618;28;20230;-75
2022/06/26 08:03:47;;;;;;;4.07;2.30;;;;;;;30.42;58.18;99509.59;4993499;28;20611;-74
2022/06/26 08:06:14;;;;;;;4.67;3.23;;;;;;;30.20;57.22;99507.06;4993664;28;20561;-73
2022/06/26 08:08:42;;;;;;;7.50;3.17;;;;;;;30.35;56.80;99509.31;4994242;28;20203;-73
2022/06/26 08:11:10;;;;;;;6.60;2.87;;;;;;;30.70;56.58;99505.38;5003584;28;20687;-74
2022/06/26 08:13:37;;;;;;;3.07;2.87;;;;;;;30.68;55.47;99507.63;5013134;28;20233;-73
2022/06/26 08:16:04;;;;;;;3.70;2.70;;;;;;;30.95;54.50;99507.22;5013463;28;20215;-73
2022/06/26 08:18:31;;;;;;;4.43;3.30;;;;;;;31.32;55.66;99517.38;5013076;28;20201;-73
2022/06/26 08:22:00;;;;;;;5.63;2.87;;;;;;;31.66;53.70;99506.22;5013040;28;20221;-74
2022/06/26 08:23:44;;;;;;;4.03;2.30;;;;;;;31.85;51.91;99525.81;5012660;28;20198;-72
2022/06/26 08:26:12;;;;;;;3.37;2.60;;;;;;;31.68;51.37;99519.63;5012511;28;20261;-72
2022/06/26 08:28:39;;;;;;;7.67;2.87;;;;;;;31.90;51.69;99522.88;5012739;28;20224;-72
2022/06/26 08:31:06;;;;;;;4.87;2.70;;;;;;;31.49;52.30;99528.31;5013174;28;20267;-72
2022/06/26 08:33:33;;;;;;;4.83;2.57;;;;;;;31.21;53.68;99518.91;5012410;28;20271;-72
2022/06/26 08:35:59;;;;;;;2.57;2.40;;;;;;;31.38;53.38;99521.56;5013038;28;20272;-72
2022/06/26 08:38:26;;;;;;;4.93;2.43;;;;;;;31.64;51.67;99527.69;5012631;28;20198;-71
2022/06/26 08:40:54;;;;;;;2.70;2.50;;;;;;;31.75;51.00;99528.13;5012158;28;20304;-70
2022/06/26 08:43:23;;;;;;;3.37;2.50;;;;;;;32.05;49.78;99536.00;5011874;28;20579;-73
2022/06/26 08:45:53;;;;;;;5.57;2.67;;;;;;;32.21;50.34;99528.75;5012174;28;20289;-71
2022/06/26 08:48:21;;;;;;;3.50;2.80;;;;;;;32.62;50.16;99534.19;5012638;28;20554;-73
2022/06/26 08:50:48;;;;;;;2.77;2.20;;;;;;;32.85;48.25;99540.13;5012605;28;20209;-71
2022/06/26 08:53:16;;;;;;;2.70;2.33;;;;;;;32.92;48.38;99532.13;5012644;28;20201;-71
2022/06/26 08:55:43;;;;;;;4.47;2.70;;;;;;;32.48;46.43;99533.69;5012257;28;20292;-71
2022/06/26 08:58:10;;;;;;;10.03;3.20;;;;;;;32.17;48.04;99530.56;5012548;28;20194;-72
2022/06/26 09:00:38;;;;;;;3.47;2.87;;;;;;;32.18;49.06;99523.91;5012145;28;20230;-72
2022/06/26 09:03:05;;;;;;;2.87;2.00;;;;;;;32.38;47.65;99539.59;5012353;28;20554;-71
2022/06/26 09:05:32;;;;;;;3.63;2.70;;;;;;;31.96;49.21;99523.44;5012480;28;20201;-71
2022/06/26 09:07:59;;;;;;;3.27;2.50;;;;;;;31.98;50.40;99519.25;5012234;28;20256;-72
2022/06/26 09:10:28;;;;;;;4.00;2.80;;;;;;;32.43;48.56;99524.84;5011444;28;20586;-71
2022/06/26 09:12:57;;;;;;;5.93;2.40;;;;;;;32.57;45.90;99537.16;5012092;28;20202;-71
2022/06/26 09:15:25;;;;;;;3.87;2.60;;;;;;;32.80;46.32;99535.66;5010093;28;20225;-72
2022/06/26 09:17:59;;;;;;;4.50;2.43;;;;;;;33.03;45.31;99531.31;5012129;28;20630;-72
2022/06/26 09:20:25;;;;;;;7.00;2.70;;;;;;;33.39;45.59;99535.28;5011740;28;20209;-72
2022/06/26 09:22:53;;;;;;;4.37;2.43;;;;;;;33.63;45.17;99541.56;5011604;28;20193;-72
2022/06/26 09:25:20;;;;;;;3.00;2.33;;;;;;;33.72;43.73;99539.47;5010923;28;20284;-73
2022/06/26 09:27:47;;;;;;;2.28;2.13;;;;;;;33.72;42.99;99533.94;5010069;28;20256;-73
2022/06/26 09:30:15;;;;;;;2.83;2.47;;;;;;;33.24;43.03;99534.75;5010214;28;20197;-72
2022/06/26 09:32:42;;;;;;;2.77;2.23;;;;;;;33.29;43.06;99536.50;5011471;28;20240;-71
2022/06/26 09:35:10;;;;;;;4.65;2.53;;;;;;;33.42;43.25;99529.88;5011156;28;20570;-73
2022/06/26 09:37:38;;;;;;;2.47;2.28;;;;;;;33.19;43.60;99526.75;5012073;28;20209;-71
2022/06/26 09:40:07;;;;;;;4.70;2.35;;;;;;;32.54;43.83;99535.09;5011794;28;20253;-73
2022/06/26 09:42:34;;;;;;;4.77;2.40;;;;;;;32.75;44.25;99516.56;5011646;28;20629;-72
2022/06/26 09:45:01;;;;;;;5.03;2.33;;;;;;;32.59;44.36;99514.81;5011064;28;20740;-71
2022/06/26 09:47:30;;;;;;;2.93;2.37;;;;;;;32.73;45.89;99513.34;5011881;28;20194;-71
2022/06/26 09:50:00;;;;;;;2.83;2.17;;;;;;;32.86;45.19;99520.53;5011615;28;20700;-71
2022/06/26 09:52:30;;;;;;;3.23;2.30;;;;;;;33.05;44.77;99518.03;5011921;28;20198;-71
2022/06/26 09:54:58;;;;;;;3.13;2.10;;;;;;;33.24;44.64;99507.22;5011488;28;20186;-71
2022/06/26 09:57:26;;;;;;;3.25;2.17;;;;;;;32.94;44.56;99508.59;5012262;28;20202;-72
2022/06/26 09:59:52;;;;;;;3.80;2.57;;;;;;;33.02;44.14;99513.19;5015298;28;20198;-71
2022/06/26 10:07:53;;;;;;;4.15;2.38;;;;;;;33.20;44.54;99517.31;5015614;28;20185;-71
2022/06/26 10:10:22;;;;;;;2.53;2.28;;;;;;;33.15;44.33;99523.06;5015386;28;20198;-71
2022/06/26 10:12:53;;;;;;;4.60;2.60;;;;;;;33.11;42.67;99524.09;5015677;28;20200;-71
2022/06/26 10:15:21;;;;;;;4.53;2.47;;;;;;;32.51;44.65;99502.75;5015759;28;20257;-74
2022/06/26 10:18:15;;;;;;;2.40;2.17;;;;;;;32.72;44.88;99516.44;5014483;28;20625;-71
2022/06/26 10:20:43;;;;;;;3.77;1.90;;;;;;;32.43;42.79;99508.34;5014139;28;20272;-71
2022/06/26 10:23:11;;;;;;;2.50;2.30;;;;;;;32.36;44.32;99506.16;5015247;28;20289;-71
2022/06/26 10:25:38;;;;;;;3.83;2.37;;;;;;;32.07;44.04;99500.75;5014858;28;20666;-71
2022/06/26 10:28:05;;;;;;;1.83;1.73;;;;;;;31.92;43.57;99498.59;5015072;28;20202;-72
2022/06/26 10:30:32;;;;;;;11.73;2.33;;;;;;;32.00;43.72;99497.72;5014649;28;20658;-71
2022/06/26 10:33:10;;;;;;;2.17;1.97;;;;;;;32.14;43.23;99495.47;5014948;28;20689;-71
2022/06/26 10:35:38;;;;;;;2.83;2.13;;;;;;;32.19;42.05;99491.72;5014811;28;20198;-71
2022/06/26 10:38:22;;;;;;;2.70;2.50;;;;;;;32.04;42.92;99498.66;5015204;28;20256;-71
2022/06/26 10:43:50;;;;;;;2.97;2.00;;;;;;;32.75;40.70;99499.25;5015179;28;20186;-71
2022/06/26 10:46:21;;;;;;;2.47;2.27;;;;;;;32.92;41.99;99488.84;5015213;28;20183;-71
2022/06/26 10:48:53;;;;;;;5.23;2.80;;;;;;;32.73;41.68;99485.84;5014571;28;20202;-71
2022/06/26 10:51:28;;;;;;;2.63;2.37;;;;;;;32.82;41.21;99494.81;5014309;28;20248;-72
2022/06/26 10:53:56;;;;;;;3.97;2.23;;;;;;;32.34;41.51;99480.13;5014598;28;20193;-71
2022/06/26 10:56:23;;;;;;;2.20;2.00;;;;;;;32.57;41.69;99484.06;5015351;28;20201;-71
2022/06/26 10:59:00;;;;;;;4.27;2.10;;;;;;;32.69;41.95;99479.41;5014532;28;20244;-71
2022/06/26 11:01:27;;;;;;;3.27;2.17;;;;;;;32.82;42.70;99472.00;5014539;28;20230;-71
2022/06/26 11:03:53;;;;;;;10.80;2.80;;;;;;;32.88;42.36;99476.97;5014154;28;20198;-71
2022/06/26 11:06:20;;;;;;;3.08;2.50;;;;;;;32.64;43.36;99473.31;5014596;28;20190;-71
2022/06/26 11:08:49;;;;;;;3.10;2.90;;;;;;;32.51;43.25;99474.44;5013565;28;20210;-71
2022/06/26 11:11:20;;;;;;;2.67;2.47;;;;;;;32.49;43.45;99468.47;5003106;28;20265;-71
2022/06/26 11:13:51;;;;;;;2.23;2.13;;;;;;;32.56;44.30;99468.72;4995720;28;20234;-73
2022/06/26 11:16:18;;;;;;;4.10;2.65;;;;;;;32.55;44.26;99467.13;4995213;28;20186;-71
2022/06/26 11:18:45;;;;;;;4.30;2.50;;;;;;;32.35;45.15;99455.06;4994686;28;20261;-71
2022/06/26 11:21:12;;;;;;;4.00;3.70;;;;;;;32.24;44.56;99462.09;4994136;28;20702;-71
2022/06/26 11:23:40;;;;;;;5.40;2.57;;;;;;;32.17;43.68;99456.31;4994628;28;20261;-71
2022/06/26 11:26:08;;;;;;;3.63;2.60;;;;;;;32.03;43.63;99461.31;4993922;28;20679;-72
2022/06/26 11:28:38;;;;;;;2.73;2.30;;;;;;;32.16;43.77;99456.66;4994287;28;20249;-73
2022/06/26 11:31:07;;;;;;;2.70;2.50;;;;;;;32.34;44.09;99458.91;4995192;28;20198;-71
2022/06/26 11:33:36;;;;;;;4.83;2.77;;;;;;;32.38;44.56;99451.59;4993984;28;20663;-71
2022/06/26 11:36:05;;;;;;;2.93;2.73;;;;;;;32.52;44.92;99445.78;4994138;28;20749;-71
2022/06/26 11:38:33;;;;;;;3.30;3.00;;;;;;;32.50;43.95;99448.09;4994200;28;20195;-71
2022/06/26 11:41:01;;;;;;;12.97;3.43;;;;;;;32.55;45.44;99440.41;4994029;28;20776;-71
2022/06/26 11:43:29;;;;;;;3.47;2.50;;;;;;;32.77;44.26;99453.75;4994158;28;20198;-71
2022/06/26 11:45:57;;;;;;;3.38;2.60;;;;;;;33.09;43.56;99446.53;4994036;28;20194;-70
2022/06/26 11:48:25;;;;;;;3.13;2.77;;;;;;;33.27;42.66;99453.41;5012360;28;20608;-80
2022/06/26 11:50:54;;;;;;;3.67;3.47;;;;;;;33.11;45.48;99438.72;5011485;28;20760;-78